sensor_id;sensor_type;location;lat;lon;timestamp;P1;durP1;ratioP1;P2;durP2;ratioP2
25984;SDS011;66753;53.848;10.658;2023-09-19T00:01:49;2.20;;;0.70;;
25984;SDS011;66753;53.848;10.658;2023-09-19T00:16:53;2.10;;;1.13;;
25984;SDS011;66753;53.848;10.658;2023-09-19T00:31:55;1.83;;;0.70;;
25984;SDS011;66753;53.848;10.658;2023-09-19T00:46:57;2.27;;;1.03;;
25984;SDS011;66753;53.848;10.658;2023-09-19T01:01:59;2.93;;;1.40;;
25984;SDS011;66753;53.848;10.658;2023-09-19T01:17:03;4.27;;;1.63;;
25984;SDS011;66753;53.848;10.658;2023-09-19T01:32:28;6.67;;;1.67;;
25984;SDS011;66753;53.848;10.658;2023-09-19T01:47:34;4.23;;;1.90;;
25984;SDS011;66753;53.848;10.658;2023-09-19T02:02:46;3.10;;;1.53;;
25984;SDS011;66753;53.848;10.658;2023-09-19T02:17:49;3.33;;;1.87;;
25984;SDS011;66753;53.848;10.658;2023-09-19T02:32:51;4.13;;;2.23;;
25984;SDS011;66753;53.848;10.658;2023-09-19T02:47:52;4.30;;;2.30;;
25984;SDS011;66753;53.848;10.658;2023-09-19T03:02:55;5.43;;;1.97;;
25984;SDS011;66753;53.848;10.658;2023-09-19T03:17:57;3.10;;;1.20;;
25984;SDS011;66753;53.848;10.658;2023-09-19T03:33:00;4.73;;;1.60;;
25984;SDS011;66753;53.848;10.658;2023-09-19T03:48:07;4.60;;;1.40;;
25984;SDS011;66753;53.848;10.658;2023-09-19T04:03:09;5.27;;;1.60;;
25984;SDS011;66753;53.848;10.658;2023-09-19T04:18:19;4.30;;;1.30;;
25984;SDS011;66753;53.848;10.658;2023-09-19T04:33:20;3.93;;;1.20;;
25984;SDS011;66753;53.848;10.658;2023-09-19T04:48:22;3.57;;;1.07;;
25984;SDS011;66753;53.848;10.658;2023-09-19T05:03:27;6.90;;;1.10;;
25984;SDS011;66753;53.848;10.658;2023-09-19T05:18:29;4.37;;;1.17;;
25984;SDS011;66753;53.848;10.658;2023-09-19T05:33:32;4.27;;;0.87;;
25984;SDS011;66753;53.848;10.658;2023-09-19T05:48:34;3.27;;;0.73;;
25984;SDS011;66753;53.848;10.658;2023-09-19T06:03:36;3.97;;;0.70;;
25984;SDS011;66753;53.848;10.658;2023-09-19T06:18:37;4.50;;;0.80;;
25984;SDS011;66753;53.848;10.658;2023-09-19T06:33:40;5.43;;;0.87;;
25984;SDS011;66753;53.848;10.658;2023-09-19T06:48:41;5.53;;;0.70;;
25984;SDS011;66753;53.848;10.658;2023-09-19T07:03:44;3.00;;;1.10;;
25984;SDS011;66753;53.848;10.658;2023-09-19T07:18:46;3.37;;;1.07;;
25984;SDS011;66753;53.848;10.658;2023-09-19T07:33:47;5.37;;;1.00;;
25984;SDS011;66753;53.848;10.658;2023-09-19T07:48:51;5.43;;;1.03;;
25984;SDS011;66753;53.848;10.658;2023-09-19T08:03:53;4.23;;;1.47;;
25984;SDS011;66753;53.848;10.658;2023-09-19T08:18:55;6.17;;;1.70;;
25984;SDS011;66753;53.848;10.658;2023-09-19T08:33:56;6.10;;;1.63;;
25984;SDS011;66753;53.848;10.658;2023-09-19T08:49:05;2.97;;;1.10;;
25984;SDS011;66753;53.848;10.658;2023-09-19T09:04:23;3.37;;;0.90;;
25984;SDS011;66753;53.848;10.658;2023-09-19T09:19:26;5.00;;;1.10;;
25984;SDS011;66753;53.848;10.658;2023-09-19T09:34:34;5.33;;;1.47;;
25984;SDS011;66753;53.848;10.658;2023-09-19T09:49:35;5.40;;;1.27;;
25984;SDS011;66753;53.848;10.658;2023-09-19T10:04:36;7.10;;;1.30;;
25984;SDS011;66753;53.848;10.658;2023-09-19T10:19:57;3.60;;;1.00;;
25984;SDS011;66753;53.848;10.658;2023-09-19T10:34:59;4.30;;;1.30;;
25984;SDS011;66753;53.848;10.658;2023-09-19T11:05:12;4.40;;;0.93;;
25984;SDS011;66753;53.848;10.658;2023-09-19T11:35:24;4.87;;;1.00;;
25984;SDS011;66753;53.848;10.658;2023-09-19T11:51:09;4.67;;;0.80;;
25984;SDS011;66753;53.848;10.658;2023-09-19T12:06:19;4.10;;;1.00;;
25984;SDS011;66753;53.848;10.658;2023-09-19T12:36:31;3.83;;;0.90;;
25984;SDS011;66753;53.848;10.658;2023-09-19T12:51:35;4.70;;;0.93;;
25984;SDS011;66753;53.848;10.658;2023-09-19T13:06:36;5.03;;;1.20;;
25984;SDS011;66753;53.848;10.658;2023-09-19T13:21:43;3.90;;;0.83;;
25984;SDS011;66753;53.848;10.658;2023-09-19T13:36:50;3.90;;;1.33;;
25984;SDS011;66753;53.848;10.658;2023-09-19T13:51:52;4.43;;;1.50;;
25984;SDS011;66753;53.848;10.658;2023-09-19T14:06:55;6.17;;;1.47;;
25984;SDS011;66753;53.848;10.658;2023-09-19T14:21:58;3.90;;;1.13;;
25984;SDS011;66753;53.848;10.658;2023-09-19T14:37:02;5.33;;;1.43;;
25984;SDS011;66753;53.848;10.658;2023-09-19T14:52:06;3.37;;;1.07;;
25984;SDS011;66753;53.848;10.658;2023-09-19T15:07:10;5.60;;;1.40;;
25984;SDS011;66753;53.848;10.658;2023-09-19T15:22:12;4.33;;;0.97;;
25984;SDS011;66753;53.848;10.658;2023-09-19T15:37:14;5.57;;;1.20;;
25984;SDS011;66753;53.848;10.658;2023-09-19T15:52:17;5.30;;;1.00;;
25984;SDS011;66753;53.848;10.658;2023-09-19T16:07:18;5.13;;;1.37;;
25984;SDS011;66753;53.848;10.658;2023-09-19T16:22:20;5.07;;;1.53;;
25984;SDS011;66753;53.848;10.658;2023-09-19T16:37:22;4.60;;;1.50;;
25984;SDS011;66753;53.848;10.658;2023-09-19T16:52:24;3.27;;;1.53;;
25984;SDS011;66753;53.848;10.658;2023-09-19T17:07:25;6.50;;;1.97;;
25984;SDS011;66753;53.848;10.658;2023-09-19T17:22:27;5.30;;;1.30;;
25984;SDS011;66753;53.848;10.658;2023-09-19T17:37:28;6.40;;;1.43;;
25984;SDS011;66753;53.848;10.658;2023-09-19T17:52:33;8.60;;;1.50;;
25984;SDS011;66753;53.848;10.658;2023-09-19T18:07:35;3.30;;;0.90;;
25984;SDS011;66753;53.848;10.658;2023-09-19T18:22:38;4.03;;;0.90;;
25984;SDS011;66753;53.848;10.658;2023-09-19T18:37:39;3.57;;;1.10;;
25984;SDS011;66753;53.848;10.658;2023-09-19T18:52:42;3.33;;;0.87;;
25984;SDS011;66753;53.848;10.658;2023-09-19T19:07:44;4.50;;;1.00;;
25984;SDS011;66753;53.848;10.658;2023-09-19T19:22:46;3.33;;;0.77;;
25984;SDS011;66753;53.848;10.658;2023-09-19T19:37:48;5.07;;;0.83;;
25984;SDS011;66753;53.848;10.658;2023-09-19T19:52:51;3.00;;;0.70;;
25984;SDS011;66753;53.848;10.658;2023-09-19T20:07:59;5.67;;;1.03;;
25984;SDS011;66753;53.848;10.658;2023-09-19T20:23:00;3.00;;;0.80;;
25984;SDS011;66753;53.848;10.658;2023-09-19T20:38:03;3.13;;;0.93;;
25984;SDS011;66753;53.848;10.658;2023-09-19T20:53:06;2.57;;;0.60;;
25984;SDS011;66753;53.848;10.658;2023-09-19T21:08:09;3.87;;;0.90;;
25984;SDS011;66753;53.848;10.658;2023-09-19T21:23:10;2.20;;;0.60;;
25984;SDS011;66753;53.848;10.658;2023-09-19T21:38:13;3.23;;;0.60;;
25984;SDS011;66753;53.848;10.658;2023-09-19T21:53:15;1.60;;;0.50;;
25984;SDS011;66753;53.848;10.658;2023-09-19T22:08:17;2.37;;;0.60;;
25984;SDS011;66753;53.848;10.658;2023-09-19T22:23:19;4.07;;;1.13;;
25984;SDS011;66753;53.848;10.658;2023-09-19T22:38:36;2.00;;;0.60;;
25984;SDS011;66753;53.848;10.658;2023-09-19T22:53:39;2.73;;;0.70;;
25984;SDS011;66753;53.848;10.658;2023-09-19T23:08:46;3.20;;;0.60;;
25984;SDS011;66753;53.848;10.658;2023-09-19T23:24:01;3.60;;;0.80;;
25984;SDS011;66753;53.848;10.658;2023-09-19T23:39:05;1.70;;;0.80;;
25984;SDS011;66753;53.848;10.658;2023-09-19T23:54:16;2.53;;;0.60;;
